Time;durP1;ratioP1;P1;durP2;ratioP2;P2;SDS_P1;SDS_P2;PMS_P1;PMS_P2;Temp;Humidity;BMP_temperature;BMP_pressure;BME280_temperature;BME280_humidity;BME280_pressure;Samples;Min_cycle;Max_cycle;Signal;HPM_P1;HPM_P2
2022/05/05 00:01:51;;;;;;;0.00;0.00;;;15.30;84.50;;;;;;4167361;28;20045;-67
2022/05/05 00:04:13;;;;;;;0.00;0.00;;;15.40;84.40;;;;;;4153475;28;20116;-68
2022/05/05 00:06:38;;;;;;;0.00;0.00;;;15.40;84.30;;;;;;4181542;28;20065;-69
2022/05/05 00:09:03;;;;;;;0.00;0.00;;;15.30;84.30;;;;;;4167328;28;20111;-67
2022/05/05 00:14:25;;;;;;;0.00;0.00;;;15.30;84.30;;;;;;4167113;28;20076;-66
2022/05/05 00:16:59;;;;;;;;;;;15.30;84.60;;;;;;4167451;28;20061;-69
2022/05/05 00:19:27;;;;;;;0.00;0.00;;;15.30;84.50;;;;;;4181809;28;20261;-66
2022/05/05 00:21:49;;;;;;;0.00;0.00;;;15.20;84.60;;;;;;4167035;28;20136;-67
2022/05/05 00:24:13;;;;;;;0.00;0.00;;;15.20;84.80;;;;;;4167252;28;20365;-67
2022/05/05 00:26:47;;;;;;;0.00;0.00;;;15.20;85.00;;;;;;4166923;28;20059;-66
2022/05/05 00:29:12;;;;;;;0.00;0.00;;;15.20;85.10;;;;;;4166785;28;20038;-68
2022/05/05 00:31:41;;;;;;;0.00;0.00;;;15.10;85.30;;;;;;4167164;28;20045;-67
2022/05/05 00:34:09;;;;;;;0.00;0.00;;;15.20;85.50;;;;;;4153606;28;20489;-68
2022/05/05 00:36:35;;;;;;;0.00;0.00;;;15.10;85.40;;;;;;4181380;28;20053;-70
2022/05/05 00:39:01;;;;;;;0.00;0.00;;;15.10;85.50;;;;;;4167579;28;20059;-70
2022/05/05 00:41:25;;;;;;;0.00;0.00;;;15.00;85.70;;;;;;4167052;28;20419;-67
2022/05/05 00:43:50;;;;;;;0.00;0.00;;;15.10;85.90;;;;;;4166857;28;20041;-67
2022/05/05 00:46:14;;;;;;;0.00;0.00;;;15.10;85.80;;;;;;4152853;28;20049;-69
2022/05/05 00:48:50;;;;;;;0.00;0.00;;;15.10;85.90;;;;;;4168515;28;20060;-69
2022/05/05 00:51:19;;;;;;;0.00;0.00;;;15.10;85.90;;;;;;4153329;28;20491;-69
2022/05/05 00:53:44;;;;;;;0.00;0.00;;;15.10;85.80;;;;;;4153594;28;20127;-71
2022/05/05 00:56:19;;;;;;;0.00;0.00;;;15.20;85.80;;;;;;4164145;28;20053;-68
2022/05/05 00:59:00;;;;;;;0.00;0.00;;;15.20;85.80;;;;;;4178619;28;20174;-68
2022/05/05 01:01:33;;;;;;;0.00;0.00;;;15.20;85.80;;;;;;4171395;28;20211;-69
2022/05/05 01:04:00;;;;;;;0.00;0.00;;;15.00;86.10;;;;;;4156556;28;20145;-66
2022/05/05 01:06:25;;;;;;;0.00;0.00;;;15.00;86.40;;;;;;4170296;28;20155;-68
2022/05/05 01:08:47;;;;;;;0.00;0.00;;;14.90;86.70;;;;;;4183958;28;20479;-67
2022/05/05 01:11:12;;;;;;;0.00;0.00;;;14.80;87.40;;;;;;4169999;28;20049;-68
2022/05/05 01:13:39;;;;;;;0.00;0.00;;;14.70;87.30;;;;;;4164523;28;20045;-68
2022/05/05 01:16:01;;;;;;;0.00;0.00;;;14.50;87.70;;;;;;4184043;28;20159;-66
2022/05/05 01:18:26;;;;;;;0.00;0.00;;;14.50;87.90;;;;;;4156533;28;20049;-70
2022/05/05 01:20:54;;;;;;;0.00;0.00;;;14.50;88.70;;;;;;4170077;28;20045;-67
2022/05/05 01:23:20;;;;;;;0.00;0.00;;;14.40;88.30;;;;;;4142465;28;20061;-68
2022/05/05 01:28:24;;;;;;;;;;;14.60;87.80;;;;;;4163296;28;20058;-66
2022/05/05 01:31:00;;;;;;;0.00;0.00;;;14.60;87.40;;;;;;4169974;28;20245;-67
2022/05/05 01:33:26;;;;;;;0.00;0.00;;;14.60;87.60;;;;;;4155987;28;20064;-68
2022/05/05 01:35:53;;;;;;;0.00;0.00;;;14.50;87.70;;;;;;4170079;28;20111;-67
2022/05/05 01:38:22;;;;;;;0.00;0.00;;;14.50;87.90;;;;;;4155935;28;20056;-68
2022/05/05 01:40:47;;;;;;;0.00;0.00;;;14.50;87.90;;;;;;4156227;28;20061;-67
2022/05/05 01:43:12;;;;;;;0.00;0.00;;;14.40;87.90;;;;;;4155917;28;20113;-67
2022/05/05 01:45:38;;;;;;;0.00;0.00;;;14.40;88.30;;;;;;4156514;28;20543;-67
2022/05/05 01:48:01;;;;;;;0.00;0.00;;;14.20;88.50;;;;;;4169481;28;20380;-70
2022/05/05 01:50:25;;;;;;;0.00;0.00;;;14.20;88.70;;;;;;4155967;28;20046;-67
2022/05/05 01:52:50;;;;;;;0.00;0.00;;;14.00;89.30;;;;;;4155569;28;20104;-70
2022/05/05 01:55:14;;;;;;;0.00;0.00;;;13.90;89.80;;;;;;4155727;28;20104;-71
2022/05/05 01:57:36;;;;;;;0.00;0.00;;;13.80;90.10;;;;;;4169346;28;20068;-67
2022/05/05 02:00:03;;;;;;;0.00;0.00;;;13.60;90.30;;;;;;4155501;28;20054;-69
2022/05/05 02:02:37;;;;;;;0.00;0.00;;;13.60;90.50;;;;;;4171064;28;20057;-68
2022/05/05 02:05:00;;;;;;;0.00;0.00;;;13.50;90.70;;;;;;4155682;28;20161;-67
2022/05/05 02:07:27;;;;;;;0.00;0.00;;;13.60;90.70;;;;;;4155450;28;20112;-70
2022/05/05 02:09:53;;;;;;;0.00;0.00;;;13.60;90.80;;;;;;4155384;28;20443;-68
2022/05/05 02:12:23;;;;;;;0.00;0.00;;;13.50;90.90;;;;;;4154993;28;20051;-66
2022/05/05 02:14:47;;;;;;;0.00;0.00;;;13.40;91.00;;;;;;4168912;28;20392;-66
2022/05/05 02:17:09;;;;;;;0.00;0.00;;;13.50;91.10;;;;;;4169108;28;20127;-66
2022/05/05 02:19:34;;;;;;;0.00;0.00;;;13.50;91.30;;;;;;4169086;28;20052;-67
2022/05/05 02:21:56;;;;;;;0.00;0.00;;;13.60;91.00;;;;;;4169008;28;20049;-70
2022/05/05 02:24:20;;;;;;;0.00;0.00;;;13.60;91.00;;;;;;4168992;28;20057;-68
2022/05/05 02:26:46;;;;;;;0.00;0.00;;;13.60;91.00;;;;;;4155074;28;20045;-68
2022/05/05 02:29:11;;;;;;;0.00;0.00;;;13.70;91.00;;;;;;4155600;28;20543;-70
2022/05/05 02:31:35;;;;;;;0.00;0.00;;;13.60;91.00;;;;;;4169055;28;20408;-69
2022/05/05 02:34:04;;;;;;;0.00;0.00;;;13.70;91.00;;;;;;4169000;28;20468;-70
2022/05/05 02:39:08;;;;;;;0.00;0.00;;;13.80;90.90;;;;;;4169085;28;20053;-67
2022/05/05 02:41:33;;;;;;;0.00;0.00;;;13.70;91.00;;;;;;4168947;28;20061;-69
2022/05/05 02:43:55;;;;;;;0.00;0.00;;;13.60;91.20;;;;;;4169043;28;20046;-71
2022/05/05 02:46:17;;;;;;;0.00;0.00;;;13.60;91.30;;;;;;4168794;28;20057;-68
2022/05/05 02:48:42;;;;;;;0.00;0.00;;;13.60;91.40;;;;;;4168837;28;20037;-70
2022/05/05 02:51:08;;;;;;;0.00;0.00;;;13.60;91.30;;;;;;4168795;28;20097;-69
2022/05/05 02:56:16;;;;;;;0.00;0.00;;;13.80;91.00;;;;;;4168602;28;20052;-68
2022/05/05 02:58:40;;;;;;;0.00;0.00;;;13.90;90.90;;;;;;4168310;28;20092;-67
2022/05/05 03:01:08;;;;;;;0.00;0.00;;;13.90;90.80;;;;;;4154879;28;20065;-67
2022/05/05 03:03:30;;;;;;;0.00;0.00;;;13.90;90.80;;;;;;4154400;28;20068;-67
2022/05/05 03:05:57;;;;;;;0.00;0.00;;;14.10;90.70;;;;;;4168584;28;20392;-67
2022/05/05 03:08:19;;;;;;;0.00;0.00;;;14.10;90.50;;;;;;4160479;28;20112;-65
2022/05/05 03:10:43;;;;;;;0.00;0.00;;;14.20;90.30;;;;;;4168578;28;20045;-67
2022/05/05 03:13:08;;;;;;;0.00;0.00;;;14.20;90.20;;;;;;4154488;28;20128;-67
2022/05/05 03:15:30;;;;;;;0.00;0.00;;;14.20;90.20;;;;;;4168306;28;20090;-68
2022/05/05 03:17:54;;;;;;;0.00;0.00;;;14.30;90.10;;;;;;4168116;28;20053;-69
2022/05/05 03:20:18;;;;;;;0.00;0.00;;;14.30;90.10;;;;;;4168181;28;20333;-68
2022/05/05 03:22:40;;;;;;;0.00;0.00;;;14.20;90.10;;;;;;4167809;28;20049;-68
2022/05/05 03:25:02;;;;;;;0.00;0.00;;;14.10;90.30;;;;;;4168034;28;20045;-66
2022/05/05 03:27:26;;;;;;;0.00;0.00;;;14.10;90.40;;;;;;4161222;28;20765;-69
2022/05/05 03:29:48;;;;;;;0.00;0.00;;;14.10;90.50;;;;;;4168044;28;20041;-69
2022/05/05 03:32:15;;;;;;;0.00;0.00;;;14.10;90.60;;;;;;4140945;28;20489;-69
2022/05/05 03:34:37;;;;;;;0.00;0.00;;;14.20;90.50;;;;;;4153834;28;20038;-69
2022/05/05 03:36:59;;;;;;;0.00;0.00;;;14.20;90.50;;;;;;4154225;28;20056;-65
2022/05/05 03:39:21;;;;;;;0.00;0.00;;;14.30;90.30;;;;;;4174330;28;20487;-67
2022/05/05 03:41:45;;;;;;;0.00;0.00;;;14.30;90.00;;;;;;4167708;28;20033;-69
2022/05/05 03:44:10;;;;;;;0.00;0.00;;;14.30;89.80;;;;;;4153953;28;20038;-71
2022/05/05 03:46:32;;;;;;;0.00;0.00;;;14.40;89.70;;;;;;4154247;28;20429;-68
2022/05/05 03:48:56;;;;;;;0.00;0.00;;;14.30;89.80;;;;;;4153668;28;20457;-68
2022/05/05 03:51:21;;;;;;;0.00;0.00;;;14.30;90.00;;;;;;4154225;28;20069;-66
2022/05/05 03:53:48;;;;;;;0.00;0.00;;;14.20;90.10;;;;;;4167508;28;20045;-68
2022/05/05 03:56:12;;;;;;;0.00;0.00;;;14.20;90.30;;;;;;4167295;28;20072;-70
2022/05/05 03:58:39;;;;;;;0.00;0.00;;;14.00;90.40;;;;;;4135584;28;20053;-71
2022/05/05 04:01:06;;;;;;;0.00;0.00;;;14.10;90.50;;;;;;4154501;28;20508;-69
2022/05/05 04:03:30;;;;;;;0.00;0.00;;;14.10;90.30;;;;;;4154154;28;20488;-67
2022/05/05 04:05:57;;;;;;;0.00;0.00;;;14.20;90.20;;;;;;4154737;28;20085;-70
2022/05/05 04:08:19;;;;;;;0.00;0.00;;;14.20;90.00;;;;;;4154115;28;20056;-68
2022/05/05 04:10:41;;;;;;;0.00;0.00;;;14.10;90.10;;;;;;4167647;28;20537;-67
2022/05/05 04:13:10;;;;;;;0.00;0.00;;;14.00;90.10;;;;;;4154994;28;20041;-71
2022/05/05 04:15:33;;;;;;;0.00;0.00;;;14.00;90.20;;;;;;4167566;28;20046;-70
2022/05/05 04:17:57;;;;;;;0.00;0.00;;;14.10;90.10;;;;;;4154336;28;20534;-66
2022/05/05 04:20:22;;;;;;;0.00;0.00;;;14.20;89.90;;;;;;4167439;28;20049;-69
2022/05/05 04:22:44;;;;;;;0.00;0.00;;;14.20;89.70;;;;;;4167708;28;20401;-66
2022/05/05 04:25:09;;;;;;;0.00;0.00;;;14.30;89.60;;;;;;4153794;28;20107;-67
2022/05/05 04:27:32;;;;;;;0.00;0.00;;;14.40;89.30;;;;;;4167426;28;20135;-67
2022/05/05 04:29:59;;;;;;;0.00;0.00;;;14.40;89.20;;;;;;4167644;28;20499;-69
2022/05/05 04:32:23;;;;;;;0.00;0.00;;;14.50;89.10;;;;;;4167432;28;20072;-68
2022/05/05 04:34:47;;;;;;;0.00;0.00;;;14.50;89.00;;;;;;4153470;28;20049;-69
2022/05/05 04:37:11;;;;;;;0.00;0.00;;;14.60;89.10;;;;;;4154287;28;20065;-67
2022/05/05 04:39:33;;;;;;;0.00;0.00;;;14.70;89.00;;;;;;4167489;28;20045;-66
2022/05/05 04:41:57;;;;;;;0.00;0.00;;;14.70;88.90;;;;;;4153409;28;20050;-67
2022/05/05 04:44:19;;;;;;;0.00;0.00;;;14.80;88.90;;;;;;4167045;28;20104;-66
2022/05/05 04:46:41;;;;;;;0.00;0.00;;;14.90;88.90;;;;;;4167291;28;20037;-73
2022/05/05 04:49:08;;;;;;;0.00;0.00;;;14.90;89.00;;;;;;4153552;28;20103;-71
2022/05/05 04:51:30;;;;;;;0.00;0.00;;;14.90;89.10;;;;;;4147839;28;20041;-72
2022/05/05 04:53:56;;;;;;;0.00;0.00;;;14.90;89.10;;;;;;4153905;28;20046;-72
2022/05/05 04:56:18;;;;;;;0.00;0.00;;;14.80;89.10;;;;;;4146342;28;20049;-70
2022/05/05 04:58:41;;;;;;;0.00;0.00;;;14.80;89.30;;;;;;4153633;28;20045;-71
2022/05/05 05:01:05;;;;;;;0.00;0.00;;;14.70;89.50;;;;;;4150879;28;20045;-71
2022/05/05 05:03:39;;;;;;;0.00;0.00;;;14.60;89.70;;;;;;4131012;28;20062;-73
2022/05/05 05:06:04;;;;;;;0.00;0.00;;;14.60;90.00;;;;;;4151015;28;20476;-69
2022/05/05 05:08:29;;;;;;;0.00;0.00;;;14.50;90.30;;;;;;4137267;28;20478;-73
2022/05/05 05:10:53;;;;;;;0.00;0.00;;;14.50;90.30;;;;;;4150587;28;20049;-70
2022/05/05 05:13:15;;;;;;;0.00;0.00;;;14.60;90.20;;;;;;4150727;28;20046;-70
2022/05/05 05:15:37;;;;;;;0.00;0.00;;;14.70;90.20;;;;;;4150655;28;20129;-73
2022/05/05 05:18:01;;;;;;;0.00;0.00;;;14.70;90.20;;;;;;4144390;28;20044;-73
2022/05/05 05:20:23;;;;;;;0.00;0.00;;;14.60;90.10;;;;;;4121190;28;20058;-70
2022/05/05 05:22:50;;;;;;;0.00;0.00;;;14.60;90.30;;;;;;4143717;28;20104;-73
2022/05/05 05:25:12;;;;;;;0.00;0.00;;;14.50;90.50;;;;;;4134702;28;20153;-73
2022/05/05 05:27:34;;;;;;;0.00;0.00;;;14.60;90.50;;;;;;4164177;28;20084;-74
2022/05/05 05:29:56;;;;;;;0.00;0.00;;;14.60;90.50;;;;;;4164224;28;20060;-73
2022/05/05 05:32:18;;;;;;;0.00;0.00;;;14.60;90.40;;;;;;4137304;28;20152;-74
2022/05/05 05:34:42;;;;;;;0.00;0.00;;;14.80;90.30;;;;;;4150521;28;20049;-72
2022/05/05 05:37:04;;;;;;;0.00;0.00;;;14.90;90.10;;;;;;4137142;28;20051;-75
2022/05/05 05:39:26;;;;;;;0.00;0.00;;;15.00;89.80;;;;;;4164227;28;20050;-73
2022/05/05 05:41:50;;;;;;;0.00;0.00;;;14.90;89.70;;;;;;4150676;28;20080;-72
2022/05/05 05:44:15;;;;;;;0.00;0.00;;;14.90;89.80;;;;;;4164171;28;20196;-73
2022/05/05 05:46:41;;;;;;;0.00;0.00;;;14.90;90.00;;;;;;4124526;28;20477;-73
2022/05/05 05:49:06;;;;;;;0.00;0.00;;;14.80;90.10;;;;;;4140294;28;20084;-73
2022/05/05 05:51:28;;;;;;;0.00;0.00;;;14.80;90.30;;;;;;4150597;28;20465;-73
2022/05/05 05:53:53;;;;;;;0.00;0.00;;;14.80;90.20;;;;;;4123604;28;20088;-74
2022/05/05 05:56:18;;;;;;;0.00;0.00;;;14.70;90.30;;;;;;4137114;28;20042;-74
2022/05/05 05:58:40;;;;;;;0.00;0.00;;;14.80;90.40;;;;;;4150686;28;20042;-71
2022/05/05 06:01:09;;;;;;;0.00;0.00;;;14.80;90.20;;;;;;4136906;28;20065;-74
2022/05/05 06:06:12;;;;;;;0.00;0.00;;;14.70;90.30;;;;;;4136739;28;20042;-73
2022/05/05 06:08:34;;;;;;;0.00;0.00;;;14.70;90.20;;;;;;4131553;28;20050;-72
2022/05/05 06:10:59;;;;;;;0.00;0.00;;;14.70;90.20;;;;;;4136940;28;20046;-72
2022/05/05 06:13:21;;;;;;;0.00;0.00;;;14.80;90.40;;;;;;4150543;28;20140;-72
2022/05/05 06:15:45;;;;;;;0.00;0.00;;;14.90;90.20;;;;;;4137368;28;20555;-72
2022/05/05 06:18:12;;;;;;;0.00;0.00;;;14.90;90.10;;;;;;4137723;28;20050;-71
2022/05/05 06:20:36;;;;;;;0.00;0.00;;;14.90;90.10;;;;;;4153174;28;20049;-71
2022/05/05 06:22:59;;;;;;;0.00;0.00;;;14.90;89.90;;;;;;4153358;28;20772;-74
2022/05/05 06:25:24;;;;;;;0.00;0.00;;;14.90;90.00;;;;;;4140058;28;20105;-74
2022/05/05 06:27:49;;;;;;;0.00;0.00;;;14.90;90.00;;;;;;4153158;28;20093;-74
2022/05/05 06:30:14;;;;;;;0.00;0.00;;;14.80;90.20;;;;;;4145915;28;20061;-72
2022/05/05 06:32:42;;;;;;;0.00;0.00;;;14.70;90.30;;;;;;4169226;28;20049;-73
2022/05/05 06:35:07;;;;;;;0.00;0.00;;;14.80;90.50;;;;;;4170745;28;20149;-72
2022/05/05 06:37:31;;;;;;;0.00;0.00;;;14.80;90.40;;;;;;4156288;28;20095;-73
2022/05/05 06:39:53;;;;;;;0.00;0.00;;;14.70;90.50;;;;;;4155421;28;20053;-71
2022/05/05 06:42:20;;;;;;;0.00;0.00;;;14.70;90.60;;;;;;4155694;28;20037;-75
2022/05/05 06:44:47;;;;;;;0.00;0.00;;;14.80;90.50;;;;;;4155816;28;20467;-72
2022/05/05 06:47:11;;;;;;;0.00;0.00;;;14.80;90.50;;;;;;4154822;28;20042;-73
2022/05/05 06:49:33;;;;;;;0.00;0.00;;;14.80;90.40;;;;;;4168567;28;20103;-75
2022/05/05 06:51:55;;;;;;;0.00;0.00;;;14.80;90.30;;;;;;4132921;28;20126;-72
2022/05/05 06:54:23;;;;;;;0.00;0.00;;;14.80;90.60;;;;;;4144159;28;20068;-70
2022/05/05 06:56:48;;;;;;;0.00;0.00;;;14.80;90.70;;;;;;4165973;28;20050;-71
2022/05/05 06:59:10;;;;;;;0.00;0.00;;;15.00;90.50;;;;;;4151968;28;20192;-74
2022/05/05 07:07:11;;;;;;;0.00;0.00;;;14.90;90.40;;;;;;4137595;28;20352;-72
2022/05/05 07:12:14;;;;;;;0.00;0.00;;;14.90;90.50;;;;;;4152559;28;20050;-75
2022/05/05 07:14:43;;;;;;;0.00;0.00;;;14.80;90.60;;;;;;4139150;28;20057;-72
2022/05/05 07:17:08;;;;;;;0.00;0.00;;;14.80;90.70;;;;;;4138627;28;20085;-74
2022/05/05 07:19:32;;;;;;;0.00;0.00;;;14.80;90.80;;;;;;4125324;28;20050;-73
2022/05/05 07:21:54;;;;;;;0.00;0.00;;;15.00;90.80;;;;;;4166071;28;20383;-75
2022/05/05 07:24:18;;;;;;;0.00;0.00;;;15.20;90.50;;;;;;4165319;28;20140;-72
2022/05/05 07:26:43;;;;;;;0.00;0.00;;;15.20;90.30;;;;;;4154901;28;20496;-74
2022/05/05 07:29:08;;;;;;;0.00;0.00;;;15.10;90.30;;;;;;4168794;28;20072;-74
2022/05/05 07:31:32;;;;;;;0.00;0.00;;;15.10;90.30;;;;;;4155216;28;20492;-73
2022/05/05 07:33:59;;;;;;;0.00;0.00;;;15.00;90.40;;;;;;4141235;28;20049;-73
2022/05/05 07:36:24;;;;;;;0.00;0.00;;;14.80;90.30;;;;;;4154300;28;20054;-73
2022/05/05 07:38:46;;;;;;;0.00;0.00;;;14.90;90.30;;;;;;4168469;28;20107;-72
2022/05/05 07:41:11;;;;;;;0.00;0.00;;;14.80;90.40;;;;;;4168272;28;20048;-73
2022/05/05 07:43:35;;;;;;;0.00;0.00;;;14.80;90.40;;;;;;4167692;28;20053;-76
2022/05/05 07:45:59;;;;;;;0.00;0.00;;;14.90;90.50;;;;;;4154568;28;20050;-71
2022/05/05 07:48:21;;;;;;;0.00;0.00;;;14.90;90.60;;;;;;4153990;28;20057;-74
2022/05/05 07:50:47;;;;;;;0.00;0.00;;;15.00;90.70;;;;;;4167637;28;20106;-74
2022/05/05 07:53:13;;;;;;;0.00;0.00;;;15.10;90.50;;;;;;4167733;28;20080;-73
2022/05/05 07:55:35;;;;;;;0.00;0.00;;;15.20;90.30;;;;;;4167720;28;20051;-73
2022/05/05 07:58:00;;;;;;;0.00;0.00;;;15.20;90.20;;;;;;4154817;28;20045;-73
2022/05/05 08:00:24;;;;;;;0.00;0.00;;;15.40;90.20;;;;;;4181626;28;20159;-73
2022/05/05 08:02:47;;;;;;;0.00;0.00;;;15.50;90.10;;;;;;4170850;28;20067;-73
2022/05/05 08:05:12;;;;;;;0.00;0.00;;;15.50;90.10;;;;;;4184645;28;20048;-73
2022/05/05 08:07:34;;;;;;;0.00;0.00;;;15.60;90.20;;;;;;4170785;28;20068;-72
2022/05/05 08:09:55;;;;;;;0.00;0.00;;;15.70;90.10;;;;;;4170203;28;20128;-74
2022/05/05 08:12:22;;;;;;;0.00;0.00;;;15.60;90.10;;;;;;4170215;28;20132;-72
2022/05/05 08:14:47;;;;;;;0.00;0.00;;;15.60;90.10;;;;;;4183982;28;20049;-75
2022/05/05 08:17:09;;;;;;;0.00;0.00;;;15.60;90.10;;;;;;4170095;28;20041;-74
2022/05/05 08:19:35;;;;;;;0.00;0.00;;;15.60;90.30;;;;;;4170996;28;20460;-72
2022/05/05 08:21:59;;;;;;;0.00;0.00;;;15.60;90.40;;;;;;4137421;28;20166;-73
2022/05/05 08:29:45;;;;;;;0.00;0.00;;;15.70;90.60;;;;;;4169886;28;20065;-72
2022/05/05 08:32:07;;;;;;;0.00;0.00;;;15.70;90.80;;;;;;4170018;28;20041;-72
2022/05/05 08:34:34;;;;;;;0.00;0.00;;;15.80;90.70;;;;;;4142492;28;20042;-71
2022/05/05 08:36:58;;;;;;;0.00;0.00;;;15.80;90.80;;;;;;4183731;28;20088;-71
2022/05/05 08:39:22;;;;;;;0.00;0.00;;;15.90;90.20;;;;;;4142942;28;20650;-72
2022/05/05 08:41:46;;;;;;;0.00;0.00;;;15.80;90.20;;;;;;4184169;28;20064;-73
2022/05/05 08:44:08;;;;;;;0.00;0.00;;;15.80;90.30;;;;;;4183848;28;20063;-75
2022/05/05 08:46:33;;;;;;;0.00;0.00;;;15.80;90.30;;;;;;4183590;28;20132;-74
2022/05/05 08:49:04;;;;;;;0.00;0.00;;;15.70;90.00;;;;;;4169854;28;20057;-73
2022/05/05 08:51:33;;;;;;;0.00;0.00;;;15.60;89.90;;;;;;4183782;28;20171;-72
2022/05/05 08:53:59;;;;;;;0.00;0.00;;;15.50;89.80;;;;;;4169745;28;20053;-70
2022/05/05 08:56:21;;;;;;;0.00;0.00;;;15.50;90.00;;;;;;4183555;28;20044;-72
2022/05/05 08:58:47;;;;;;;0.00;0.00;;;15.40;90.20;;;;;;4183427;28;20082;-71
2022/05/05 09:01:10;;;;;;;0.00;0.00;;;15.50;90.20;;;;;;4156158;28;20045;-71
2022/05/05 09:03:38;;;;;;;0.00;0.00;;;15.50;90.10;;;;;;4183816;28;20463;-72
2022/05/05 09:06:01;;;;;;;0.00;0.00;;;15.50;90.00;;;;;;4183495;28;20404;-73
2022/05/05 09:08:27;;;;;;;0.00;0.00;;;15.60;89.50;;;;;;4183586;28;20049;-74
2022/05/05 09:10:51;;;;;;;0.00;0.00;;;15.50;89.90;;;;;;4183323;28;20049;-73
2022/05/05 09:13:20;;;;;;;0.00;0.00;;;15.50;89.10;;;;;;4169521;28;20049;-69
2022/05/05 09:15:44;;;;;;;0.00;0.00;;;15.50;89.40;;;;;;4169543;28;20057;-70
2022/05/05 09:18:25;;;;;;;0.00;0.00;;;15.50;89.60;;;;;;4183284;28;20041;-72
2022/05/05 09:20:49;;;;;;;0.00;0.00;;;15.50;89.40;;;;;;4161082;28;20064;-73
2022/05/05 09:23:36;;;;;;;0.00;0.00;;;15.50;89.40;;;;;;4169561;28;20465;-71
2022/05/05 09:26:00;;;;;;;0.00;0.00;;;15.40;89.60;;;;;;4154065;28;20084;-72
2022/05/05 09:28:31;;;;;;;0.00;0.00;;;15.20;89.90;;;;;;4168090;28;20132;-73
2022/05/05 09:31:01;;;;;;;0.00;0.00;;;15.20;90.10;;;;;;4153677;28;20046;-73
2022/05/05 09:33:37;;;;;;;0.00;0.00;;;15.30;90.20;;;;;;4154534;28;20100;-73
2022/05/05 09:36:02;;;;;;;0.00;0.00;;;15.40;90.10;;;;;;4154019;28;20053;-75
2022/05/05 09:38:44;;;;;;;0.00;0.00;;;15.60;90.00;;;;;;4154049;28;20072;-71
2022/05/05 09:41:08;;;;;;;0.00;0.00;;;15.40;89.60;;;;;;4154033;28;20042;-72
2022/05/05 09:43:33;;;;;;;0.00;0.00;;;15.30;90.20;;;;;;4167633;28;20103;-72
2022/05/05 09:45:57;;;;;;;0.00;0.00;;;15.40;90.30;;;;;;4140269;28;20393;-71
2022/05/05 09:48:25;;;;;;;0.00;0.00;;;15.50;90.20;;;;;;4181281;28;20041;-72
2022/05/05 09:50:50;;;;;;;0.00;0.00;;;15.50;90.60;;;;;;4181023;28;20045;-70
2022/05/05 09:58:42;;;;;;;0.00;0.00;;;15.60;90.10;;;;;;4139844;28;20046;-72
2022/05/05 10:01:10;;;;;;;0.00;0.00;;;15.80;89.60;;;;;;4152978;28;20050;-71
2022/05/05 10:04:00;;;;;;;0.00;0.00;;;15.80;90.20;;;;;;4153215;28;20046;-70
2022/05/05 10:06:26;;;;;;;0.00;0.00;;;15.90;90.50;;;;;;4152529;28;20108;-71
2022/05/05 10:08:53;;;;;;;0.00;0.00;;;16.00;90.50;;;;;;4180603;28;20045;-73
2022/05/05 10:11:20;;;;;;;0.00;0.00;;;16.10;90.50;;;;;;4180614;28;20063;-71
2022/05/05 10:13:43;;;;;;;0.00;0.00;;;16.20;90.70;;;;;;4153041;28;20057;-72
2022/05/05 10:16:09;;;;;;;0.00;0.00;;;16.30;90.60;;;;;;4153438;28;20053;-70
2022/05/05 10:18:38;;;;;;;0.00;0.00;;;16.20;90.90;;;;;;4153081;28;20143;-73
2022/05/05 10:21:00;;;;;;;0.00;0.00;;;16.20;90.80;;;;;;4183247;28;20044;-73
2022/05/05 10:23:30;;;;;;;0.00;0.00;;;16.30;90.80;;;;;;4166558;28;20364;-72
2022/05/05 10:25:55;;;;;;;0.00;0.00;;;16.50;90.70;;;;;;4149655;28;20073;-71
2022/05/05 10:28:37;;;;;;;0.00;0.00;;;16.50;90.60;;;;;;4139194;28;20100;-72
2022/05/05 10:30:58;;;;;;;;;;;16.40;90.50;;;;;;4153143;28;20050;-73
2022/05/05 10:34:02;;;;;;;0.00;0.00;;;16.40;90.50;;;;;;4153199;28;19933;-71
2022/05/05 10:36:29;;;;;;;0.00;0.00;;;16.40;90.60;;;;;;4153807;28;20140;-70
2022/05/05 10:38:52;;;;;;;0.00;0.00;;;16.10;91.00;;;;;;4140555;28;20807;-72
2022/05/05 10:41:36;;;;;;;0.00;0.00;;;16.20;91.30;;;;;;4168352;28;20495;-72
2022/05/05 10:44:16;;;;;;;0.00;0.00;;;16.40;91.50;;;;;;4139988;28;20057;-69
2022/05/05 10:46:56;;;;;;;0.00;0.00;;;16.50;91.60;;;;;;4167237;28;20132;-71
2022/05/05 10:49:30;;;;;;;0.00;0.00;;;16.50;91.40;;;;;;4153279;28;20061;-69
2022/05/05 10:52:10;;;;;;;0.00;0.00;;;16.50;91.30;;;;;;4139582;28;20050;-69
2022/05/05 10:54:34;;;;;;;0.00;0.00;;;16.60;91.40;;;;;;4177361;28;20048;-72
2022/05/05 10:57:25;;;;;;;0.00;0.00;;;16.70;91.20;;;;;;4169037;28;20050;-71
2022/05/05 11:00:09;;;;;;;0.00;0.00;;;16.70;91.00;;;;;;4154512;28;20064;-72
2022/05/05 11:02:34;;;;;;;0.00;0.00;;;16.70;90.90;;;;;;4168933;28;20107;-71
2022/05/05 11:05:31;;;;;;;0.00;0.00;;;16.70;90.70;;;;;;4168998;28;20546;-70
2022/05/05 11:08:17;;;;;;;0.00;0.00;;;16.70;90.70;;;;;;4168570;28;20504;-72
2022/05/05 11:13:41;;;;;;;0.00;0.00;;;16.70;90.40;;;;;;4168678;28;20352;-72
2022/05/05 11:22:20;;;;;;;0.00;0.00;;;16.50;90.60;;;;;;4152346;28;20499;-74
2022/05/05 11:24:45;;;;;;;0.00;0.00;;;16.70;90.30;;;;;;4145489;28;20092;-71
2022/05/05 11:27:13;;;;;;;0.00;0.00;;;16.80;90.20;;;;;;4185127;28;20069;-73
2022/05/05 11:29:40;;;;;;;0.00;0.00;;;17.00;90.10;;;;;;4171099;28;20049;-73
2022/05/05 11:32:05;;;;;;;0.00;0.00;;;17.10;90.10;;;;;;4171552;28;20038;-73
2022/05/05 11:34:47;;;;;;;0.00;0.00;;;17.10;89.60;;;;;;4185199;28;20048;-72
2022/05/05 11:37:09;;;;;;;0.00;0.00;;;17.10;88.90;;;;;;4184974;28;20045;-73
2022/05/05 11:39:33;;;;;;;0.00;0.00;;;16.90;89.60;;;;;;4185025;28;20064;-73
2022/05/05 11:42:10;;;;;;;0.00;0.00;;;16.80;90.00;;;;;;4184554;28;20049;-73
2022/05/05 11:44:40;;;;;;;0.00;0.00;;;16.90;90.10;;;;;;4183893;28;20049;-72
2022/05/05 11:47:14;;;;;;;0.00;0.00;;;17.10;89.70;;;;;;4184500;28;20091;-71
2022/05/05 11:49:46;;;;;;;0.00;0.00;;;17.10;88.60;;;;;;4171501;28;20053;-71
2022/05/05 11:52:08;;;;;;;0.00;0.00;;;16.60;89.20;;;;;;4170903;28;20051;-70
2022/05/05 11:54:33;;;;;;;0.00;0.00;;;16.70;89.60;;;;;;4184575;28;20438;-71
2022/05/05 11:56:58;;;;;;;0.00;0.00;;;16.80;89.00;;;;;;4171306;28;20059;-72
2022/05/05 12:02:09;;;;;;;0.00;0.00;;;16.80;88.50;;;;;;4198437;28;20036;-74
2022/05/05 12:04:34;;;;;;;0.00;0.00;;;16.70;88.60;;;;;;4184314;28;20147;-71
2022/05/05 12:07:00;;;;;;;0.00;0.00;;;16.60;89.30;;;;;;4170400;28;20041;-72
2022/05/05 12:09:27;;;;;;;0.00;0.00;;;16.50;88.70;;;;;;4184770;28;20534;-70
2022/05/05 12:12:11;;;;;;;0.00;0.00;;;16.40;89.30;;;;;;4170468;28;20096;-71
2022/05/05 12:14:43;;;;;;;0.00;0.00;;;16.50;89.00;;;;;;4184203;28;20436;-72
2022/05/05 12:17:11;;;;;;;0.00;0.00;;;16.60;88.90;;;;;;4156725;28;20129;-71
2022/05/05 12:19:44;;;;;;;0.00;0.00;;;16.50;88.60;;;;;;4158011;28;20044;-71
2022/05/05 12:22:10;;;;;;;0.00;0.00;;;16.60;88.70;;;;;;4184119;28;20049;-74
2022/05/05 12:24:34;;;;;;;0.00;0.00;;;16.60;88.30;;;;;;4170175;28;20037;-71
2022/05/05 12:27:12;;;;;;;0.00;0.00;;;16.50;88.10;;;;;;4184031;28;20557;-73
2022/05/05 12:29:38;;;;;;;0.00;0.00;;;16.50;88.50;;;;;;4183819;28;20052;-72
2022/05/05 12:32:02;;;;;;;0.00;0.00;;;16.30;88.20;;;;;;4184051;28;20053;-71
2022/05/05 12:34:35;;;;;;;0.00;0.00;;;16.30;88.80;;;;;;4183815;28;20048;-71
2022/05/05 12:37:17;;;;;;;0.00;0.00;;;16.30;88.60;;;;;;4170352;28;20128;-71
2022/05/05 12:40:07;;;;;;;0.00;0.00;;;16.40;88.20;;;;;;4170887;28;20057;-70
2022/05/05 12:42:43;;;;;;;0.00;0.00;;;16.40;88.00;;;;;;4183999;28;20377;-73
2022/05/05 12:45:20;;;;;;;0.00;0.00;;;16.40;88.00;;;;;;4153411;28;20042;-72
2022/05/05 12:47:45;;;;;;;0.00;0.00;;;16.30;88.70;;;;;;4153952;28;20045;-69
2022/05/05 12:50:49;;;;;;;0.00;0.00;;;16.30;88.60;;;;;;4167044;28;20313;-70
2022/05/05 13:01:30;;;;;;;0.00;0.00;;;16.20;89.60;;;;;;4153647;28;20140;-69
2022/05/05 13:03:54;;;;;;;0.00;0.00;;;16.20;89.90;;;;;;4167445;28;20089;-73
2022/05/05 13:06:16;;;;;;;0.00;0.00;;;16.20;90.00;;;;;;4166530;28;20476;-69
2022/05/05 13:08:49;;;;;;;0.00;0.00;;;16.20;90.10;;;;;;4166370;28;20507;-71
2022/05/05 13:11:17;;;;;;;0.00;0.00;;;16.20;90.10;;;;;;4153343;28;20044;-73
2022/05/05 13:13:42;;;;;;;0.00;0.00;;;16.20;90.10;;;;;;4166619;28;20062;-71
2022/05/05 13:16:07;;;;;;;0.00;0.00;;;16.10;89.90;;;;;;4166909;28;20482;-71
2022/05/05 13:18:29;;;;;;;0.00;0.00;;;16.10;89.70;;;;;;4166383;28;20057;-72
2022/05/05 13:20:51;;;;;;;0.00;0.00;;;16.10;89.70;;;;;;4167153;28;20084;-74
2022/05/05 13:23:13;;;;;;;0.00;0.00;;;16.10;89.70;;;;;;4166992;28;20049;-72
2022/05/05 13:25:35;;;;;;;0.00;0.00;;;16.10;89.60;;;;;;4166826;28;20095;-71
2022/05/05 13:27:57;;;;;;;0.00;0.00;;;16.20;89.50;;;;;;4153586;28;20092;-70
2022/05/05 13:30:22;;;;;;;0.00;0.00;;;16.10;89.30;;;;;;4167059;28;20048;-72
2022/05/05 13:32:44;;;;;;;0.00;0.00;;;16.00;89.50;;;;;;4153221;28;20052;-73
2022/05/05 13:35:10;;;;;;;0.00;0.00;;;16.10;89.50;;;;;;4152986;28;20092;-70
2022/05/05 13:37:35;;;;;;;0.00;0.00;;;16.10;89.90;;;;;;4167034;28;20045;-71